createdAt,value
2022-12-23T00:00:40.917Z,21.50
2022-12-23T00:03:07.594Z,22.17
2022-12-23T00:05:40.641Z,21.08
2022-12-23T00:08:08.186Z,21.67
2022-12-23T00:10:38.544Z,20.52
2022-12-23T00:13:23.441Z,22.10
2022-12-23T00:15:49.873Z,22.35
2022-12-23T00:18:16.280Z,21.20
2022-12-23T00:20:42.709Z,19.40
2022-12-23T00:23:09.214Z,20.58
2022-12-23T00:25:40.800Z,18.55
2022-12-23T00:28:23.196Z,19.95
2022-12-23T00:31:00.159Z,19.38
2022-12-23T00:33:30.075Z,19.48
2022-12-23T00:35:57.802Z,19.45
2022-12-23T00:38:43.307Z,20.08
2022-12-23T00:41:36.471Z,18.73
2022-12-23T00:44:04.586Z,19.08
2022-12-23T00:46:32.200Z,19.48
2022-12-23T00:49:17.452Z,18.40
2022-12-23T00:51:43.875Z,18.08
2022-12-23T00:54:10.315Z,20.25
2022-12-23T00:56:36.795Z,20.73
2022-12-23T00:59:06.160Z,22.08
2022-12-23T01:01:51.201Z,19.98
2022-12-23T01:04:37.833Z,19.63
2022-12-23T01:07:05.088Z,18.80
2022-12-23T01:09:31.517Z,20.40
2022-12-23T01:11:58.001Z,18.10
2022-12-23T01:14:25.110Z,20.08
2022-12-23T01:16:51.612Z,20.77
2022-12-23T01:19:18.341Z,19.45
2022-12-23T01:21:44.831Z,19.67
2022-12-23T01:24:11.257Z,19.55
2022-12-23T01:26:37.881Z,19.05
2022-12-23T01:29:04.361Z,20.30
2022-12-23T01:31:30.904Z,18.95
2022-12-23T01:33:57.350Z,20.08
2022-12-23T01:36:24.158Z,19.52
2022-12-23T01:38:50.680Z,19.60
2022-12-23T01:41:38.478Z,21.77
2022-12-23T01:44:43.456Z,19.80
2022-12-23T01:47:14.503Z,19.55
2022-12-23T01:52:07.971Z,20.17
2022-12-23T01:54:36.268Z,20.88
2022-12-23T01:57:02.960Z,22.38
2022-12-23T01:59:47.902Z,22.73
2022-12-23T02:02:32.975Z,22.08
2022-12-23T02:05:00.382Z,22.10
2022-12-23T02:07:46.183Z,24.23
2022-12-23T02:10:12.586Z,25.08
2022-12-23T02:12:53.555Z,23.83
2022-12-23T02:16:03.539Z,24.55
2022-12-23T02:18:42.066Z,25.08
2022-12-23T02:21:30.229Z,22.95
2022-12-23T02:24:05.391Z,25.25
2022-12-23T02:26:47.663Z,25.27
2022-12-23T02:29:44.475Z,26.02
2022-12-23T02:32:18.013Z,25.20
2022-12-23T02:34:55.999Z,25.85
2022-12-23T02:37:35.886Z,28.42
2022-12-23T02:40:28.304Z,27.65
2022-12-23T02:43:09.728Z,28.27
2022-12-23T02:45:43.862Z,27.77
2022-12-23T02:48:20.519Z,26.73
2022-12-23T02:50:48.830Z,28.02
2022-12-23T02:53:29.909Z,27.17
2022-12-23T02:55:58.271Z,25.88
2022-12-23T02:58:29.862Z,26.48
2022-12-23T03:00:57.966Z,26.55
2022-12-23T03:03:26.175Z,28.83
2022-12-23T03:05:54.395Z,26.92
2022-12-23T03:08:26.755Z,27.67
2022-12-23T03:11:11.923Z,29.42
2022-12-23T03:13:58.850Z,27.05
2022-12-23T03:16:51.357Z,26.77
2022-12-23T03:19:23.457Z,26.17
2022-12-23T03:22:14.665Z,25.75
2022-12-23T03:27:26.004Z,26.92
2022-12-23T03:30:08.210Z,28.03
2022-12-23T03:32:49.224Z,28.20
2022-12-23T03:35:19.880Z,29.25
2022-12-23T03:37:50.451Z,29.02
2022-12-23T03:40:25.891Z,27.38
2022-12-23T03:43:01.082Z,27.92
2022-12-23T03:45:39.441Z,27.20
2022-12-23T03:48:22.974Z,28.05
2022-12-23T03:50:54.055Z,28.95
2022-12-23T03:55:59.496Z,26.73
2022-12-23T03:58:37.708Z,25.98
2022-12-23T04:01:20.012Z,26.42
2022-12-23T04:04:14.751Z,26.15
2022-12-23T04:06:51.051Z,28.58
2022-12-23T04:09:22.169Z,27.02
2022-12-23T04:11:49.563Z,27.73
2022-12-23T04:14:20.502Z,28.50
2022-12-23T04:16:49.849Z,27.30
2022-12-23T04:19:16.325Z,27.05
2022-12-23T04:21:42.722Z,27.80
2022-12-23T04:24:09.145Z,29.15
2022-12-23T04:26:35.556Z,28.60
2022-12-23T04:29:01.941Z,26.52
2022-12-23T04:31:28.363Z,26.58
2022-12-23T04:33:54.889Z,28.02
2022-12-23T04:36:21.298Z,29.40
2022-12-23T04:38:47.705Z,26.85
2022-12-23T04:41:14.108Z,27.35
2022-12-23T04:43:40.547Z,25.13
2022-12-23T04:46:07.037Z,26.65
2022-12-23T04:48:33.498Z,25.10
2022-12-23T04:51:02.845Z,25.92
2022-12-23T04:53:29.364Z,25.42
2022-12-23T04:55:55.789Z,25.33
2022-12-23T04:58:24.089Z,24.25
2022-12-23T05:01:01.504Z,23.60
2022-12-23T05:03:28.087Z,24.27
2022-12-23T05:05:54.555Z,25.30
2022-12-23T05:08:20.970Z,23.73
2022-12-23T05:10:47.424Z,24.27
2022-12-23T05:13:13.880Z,23.27
2022-12-23T05:15:40.282Z,24.58
2022-12-23T05:18:06.696Z,23.40
2022-12-23T05:20:33.087Z,23.77
2022-12-23T05:22:59.516Z,23.70
2022-12-23T05:25:25.912Z,23.50
2022-12-23T05:27:52.326Z,23.05
2022-12-23T05:30:18.724Z,23.10
2022-12-23T05:32:45.144Z,22.85
2022-12-23T05:35:11.541Z,22.35
2022-12-23T05:37:37.968Z,20.75
2022-12-23T05:40:04.814Z,20.60
2022-12-23T05:42:31.347Z,22.33
2022-12-23T05:44:57.747Z,19.20
2022-12-23T05:47:24.149Z,21.80
2022-12-23T05:49:50.608Z,22.10
2022-12-23T05:52:17.029Z,20.60
2022-12-23T05:54:43.443Z,21.35
2022-12-23T05:57:09.831Z,21.73
2022-12-23T05:59:36.275Z,22.27
2022-12-23T06:02:02.859Z,21.08
2022-12-23T06:04:29.396Z,20.85
2022-12-23T06:06:55.884Z,19.92
2022-12-23T06:09:22.352Z,18.38
2022-12-23T06:11:49.849Z,19.67
2022-12-23T06:14:16.246Z,19.58
2022-12-23T06:16:42.716Z,18.95
2022-12-23T06:19:09.251Z,18.88
2022-12-23T06:21:35.652Z,19.10
2022-12-23T06:24:02.117Z,18.90
2022-12-23T06:26:28.528Z,17.80
2022-12-23T06:28:54.969Z,19.00
2022-12-23T06:31:21.462Z,19.73
2022-12-23T06:33:48.841Z,19.88
2022-12-23T06:36:15.280Z,21.02
2022-12-23T06:38:44.265Z,21.27
2022-12-23T06:41:10.971Z,22.58
2022-12-23T06:43:37.380Z,22.92
2022-12-23T06:46:06.453Z,22.85
2022-12-23T06:48:32.933Z,19.02
2022-12-23T06:50:59.341Z,19.60
2022-12-23T06:53:25.772Z,21.27
2022-12-23T06:56:00.219Z,22.20
2022-12-23T06:58:27.136Z,24.35
2022-12-23T07:00:53.583Z,24.92
2022-12-23T07:03:20.080Z,23.70
2022-12-23T07:05:50.262Z,25.25
2022-12-23T07:08:17.891Z,26.07
2022-12-23T07:10:44.330Z,24.63
2022-12-23T07:13:16.478Z,26.02
2022-12-23T07:15:42.867Z,27.75
2022-12-23T07:18:09.321Z,25.85
2022-12-23T07:20:35.714Z,29.48
2022-12-23T07:23:02.174Z,25.80
2022-12-23T07:25:32.035Z,27.38
2022-12-23T07:27:58.455Z,26.63
2022-12-23T07:30:25.727Z,26.50
2022-12-23T07:32:53.665Z,25.58
2022-12-23T07:35:20.055Z,26.27
2022-12-23T07:37:51.555Z,23.45
2022-12-23T07:40:18.007Z,23.05
2022-12-23T07:42:46.625Z,24.23
2022-12-23T07:45:13.550Z,23.35
2022-12-23T07:47:43.662Z,24.33
2022-12-23T07:50:13.276Z,23.23
2022-12-23T07:52:39.751Z,22.80
2022-12-23T07:55:06.543Z,24.08
2022-12-23T07:57:37.871Z,24.23
2022-12-23T08:00:09.936Z,24.00
2022-12-23T08:02:40.654Z,21.80
2022-12-23T08:05:10.824Z,22.58
2022-12-23T08:07:37.671Z,21.98
2022-12-23T08:10:05.342Z,23.25
2022-12-23T08:12:32.253Z,21.30
2022-12-23T08:14:58.922Z,23.13
2022-12-23T08:17:29.823Z,21.38
2022-12-23T08:19:56.961Z,25.33
2022-12-23T08:22:24.053Z,22.27
2022-12-23T08:24:50.643Z,23.23
2022-12-23T08:27:17.037Z,21.88
2022-12-23T08:29:43.519Z,24.17
2022-12-23T08:32:09.919Z,23.00
2022-12-23T08:34:36.658Z,23.75
2022-12-23T08:37:03.245Z,21.58
2022-12-23T08:39:29.706Z,23.02
2022-12-23T08:41:56.227Z,24.90
2022-12-23T08:44:22.969Z,22.38
2022-12-23T08:46:49.470Z,21.50
2022-12-23T08:49:15.920Z,21.38
2022-12-23T08:51:45.461Z,23.27
2022-12-23T08:54:11.872Z,22.90
2022-12-23T08:56:40.984Z,22.65
2022-12-23T08:59:18.000Z,22.08
2022-12-23T09:01:45.448Z,24.30
2022-12-23T09:04:11.950Z,24.42
2022-12-23T09:06:41.119Z,27.75
2022-12-23T09:09:10.599Z,23.58
2022-12-23T09:11:37.723Z,24.15
2022-12-23T09:14:04.723Z,23.52
2022-12-23T09:16:31.323Z,23.02
2022-12-23T09:18:57.781Z,22.98
2022-12-23T09:21:25.012Z,22.05
2022-12-23T09:23:51.635Z,21.65
2022-12-23T09:26:21.476Z,23.08
2022-12-23T09:28:48.073Z,21.65
2022-12-23T09:31:15.276Z,21.75
2022-12-23T09:33:41.873Z,21.00
2022-12-23T09:36:09.048Z,20.83
2022-12-23T09:38:36.065Z,20.67
2022-12-23T09:41:27.799Z,22.60
2022-12-23T09:44:05.264Z,20.83
2022-12-23T09:46:33.856Z,19.98
2022-12-23T09:49:05.980Z,20.83
2022-12-23T09:51:33.292Z,19.38
2022-12-23T09:54:16.383Z,17.85
2022-12-23T09:57:02.613Z,18.58
2022-12-23T09:59:50.026Z,19.05
2022-12-23T10:02:35.687Z,18.77
2022-12-23T10:05:25.894Z,19.58
2022-12-23T10:08:04.151Z,16.67
2022-12-23T10:10:40.938Z,17.42
2022-12-23T10:13:21.347Z,16.10
2022-12-23T10:15:49.539Z,16.63
2022-12-23T10:18:34.531Z,15.50
2022-12-23T10:21:08.981Z,16.60
2022-12-23T10:23:45.365Z,15.40
2022-12-23T10:26:19.776Z,16.42
2022-12-23T10:28:46.680Z,15.95
2022-12-23T10:34:16.994Z,14.63
2022-12-23T10:36:58.380Z,16.45
2022-12-23T10:39:35.428Z,15.73
2022-12-23T10:42:14.900Z,16.80
2022-12-23T10:45:03.702Z,15.07
2022-12-23T10:47:38.929Z,13.15
2022-12-23T10:50:27.736Z,15.05
2022-12-23T10:52:58.115Z,13.73
2022-12-23T10:55:33.535Z,12.93
2022-12-23T10:58:08.558Z,12.15
2022-12-23T11:00:42.712Z,14.43
2022-12-23T11:03:21.391Z,12.85
2022-12-23T11:05:51.563Z,12.40
2022-12-23T11:08:21.037Z,11.52
2022-12-23T11:10:48.177Z,13.52
2022-12-23T11:13:36.969Z,11.98
2022-12-23T11:16:19.468Z,12.77
2022-12-23T11:18:58.413Z,12.55
2022-12-23T11:21:32.210Z,10.60
2022-12-23T11:26:32.851Z,12.18
2022-12-23T11:29:06.143Z,12.07
2022-12-23T11:31:35.598Z,11.57
2022-12-23T11:34:14.012Z,13.27
2022-12-23T11:36:41.364Z,14.18
2022-12-23T11:39:22.184Z,14.40
2022-12-23T11:41:52.374Z,14.98
2022-12-23T11:44:27.054Z,14.93
2022-12-23T11:46:54.253Z,17.02
2022-12-23T11:49:26.603Z,17.45
2022-12-23T11:52:10.880Z,18.35
2022-12-23T11:54:37.632Z,18.20
2022-12-23T11:57:08.751Z,18.70
2022-12-23T11:59:46.228Z,19.15
2022-12-23T12:02:20.387Z,18.10
2022-12-23T12:04:58.160Z,18.15
2022-12-23T12:07:26.009Z,18.02
2022-12-23T12:09:56.512Z,18.02
2022-12-23T12:12:23.215Z,18.02
2022-12-23T12:14:52.300Z,17.65
2022-12-23T12:17:43.334Z,16.17
2022-12-23T12:20:34.183Z,16.40
2022-12-23T12:23:42.866Z,17.02
2022-12-23T12:26:20.304Z,16.77
2022-12-23T12:28:56.863Z,16.58
2022-12-23T12:31:42.956Z,17.27
2022-12-23T12:34:34.147Z,17.73
2022-12-23T12:39:46.933Z,17.27
2022-12-23T12:42:39.108Z,18.13
2022-12-23T12:45:33.373Z,17.52
2022-12-23T12:48:36.881Z,17.45
2022-12-23T12:51:22.222Z,18.13
2022-12-23T12:54:22.514Z,19.58
2022-12-23T12:56:52.436Z,17.92
2022-12-23T12:59:24.066Z,19.27
2022-12-23T13:02:18.896Z,18.52
2022-12-23T13:05:08.305Z,16.85
2022-12-23T13:07:53.571Z,17.90
2022-12-23T13:10:25.757Z,21.05
2022-12-23T13:13:20.337Z,19.38
2022-12-23T13:15:54.407Z,19.83
2022-12-23T13:18:45.649Z,19.52
2022-12-23T13:23:52.010Z,16.45
2022-12-23T13:26:38.742Z,16.75
2022-12-23T13:29:27.157Z,16.75
2022-12-23T13:31:58.245Z,17.23
2022-12-23T13:37:21.850Z,18.27
2022-12-23T13:40:09.373Z,19.23
2022-12-23T13:42:42.758Z,18.70
2022-12-23T13:45:16.805Z,19.50
2022-12-23T13:47:45.874Z,17.20
2022-12-23T13:50:26.346Z,16.88
2022-12-23T13:53:18.776Z,17.08
2022-12-23T13:56:00.713Z,17.10
2022-12-23T13:58:31.224Z,17.63
2022-12-23T14:01:10.045Z,17.60
2022-12-23T14:03:38.763Z,17.77
2022-12-23T14:06:40.507Z,16.63
2022-12-23T14:09:07.003Z,18.00
2022-12-23T14:11:34.060Z,17.58
2022-12-23T14:14:02.872Z,18.13
2022-12-23T14:16:53.668Z,19.10
2022-12-23T14:19:44.733Z,19.85
2022-12-23T14:22:22.921Z,18.00
2022-12-23T14:25:18.641Z,18.75
2022-12-23T14:28:18.519Z,18.55
2022-12-23T14:30:45.959Z,18.27
2022-12-23T14:33:18.383Z,18.30
2022-12-23T14:35:44.806Z,20.08
2022-12-23T14:38:14.179Z,19.33
2022-12-23T14:40:43.409Z,19.17
2022-12-23T14:43:21.920Z,18.75
2022-12-23T14:45:48.308Z,18.35
2022-12-23T14:48:33.573Z,18.38
2022-12-23T14:51:02.913Z,17.08
2022-12-23T14:53:34.015Z,17.35
2022-12-23T14:58:57.441Z,16.45
2022-12-23T15:01:31.503Z,17.38
2022-12-23T15:04:06.713Z,16.63
2022-12-23T15:06:39.672Z,17.42
2022-12-23T15:09:09.530Z,18.17
2022-12-23T15:11:37.095Z,19.52
2022-12-23T15:14:10.184Z,18.10
2022-12-23T15:16:40.301Z,18.92
2022-12-23T15:19:29.723Z,20.07
2022-12-23T15:22:22.077Z,17.88
2022-12-23T15:24:53.269Z,19.95
2022-12-23T15:27:29.633Z,18.25
2022-12-23T15:29:57.583Z,18.83
2022-12-23T15:32:26.309Z,18.77
2022-12-23T15:35:05.726Z,18.83
2022-12-23T15:37:33.188Z,18.70
2022-12-23T15:40:09.606Z,18.75
2022-12-23T15:42:46.908Z,26.45
2022-12-23T15:45:34.342Z,27.52
2022-12-23T15:48:02.767Z,28.48
2022-12-23T15:50:30.273Z,27.67
2022-12-23T15:53:05.223Z,25.52
2022-12-23T15:55:33.584Z,23.35
2022-12-23T15:58:03.023Z,21.58
2022-12-23T16:00:40.693Z,20.60
2022-12-23T16:03:23.677Z,21.23
2022-12-23T16:05:50.261Z,21.75
2022-12-23T16:08:30.095Z,21.40
2022-12-23T16:11:17.078Z,20.50
2022-12-23T16:14:22.777Z,19.50
2022-12-23T16:17:07.485Z,20.88
2022-12-23T16:19:46.748Z,19.42
2022-12-23T16:22:20.908Z,20.67
2022-12-23T16:25:08.365Z,21.17
2022-12-23T16:27:42.149Z,22.00
2022-12-23T16:30:15.592Z,20.50
2022-12-23T16:32:52.547Z,19.38
2022-12-23T16:35:34.966Z,17.88
2022-12-23T16:38:19.550Z,16.90
2022-12-23T16:40:48.420Z,15.60
2022-12-23T16:43:15.816Z,16.60
2022-12-23T16:45:47.037Z,15.43
2022-12-23T16:48:35.870Z,16.85
2022-12-23T16:51:08.268Z,14.68
2022-12-23T16:53:34.915Z,15.02
2022-12-23T16:56:01.560Z,16.85
2022-12-23T16:58:29.313Z,16.90
2022-12-23T17:00:56.819Z,17.58
2022-12-23T17:03:23.235Z,17.65
2022-12-23T17:05:49.700Z,16.48
2022-12-23T17:08:16.127Z,17.20
2022-12-23T17:10:44.587Z,17.88
2022-12-23T17:13:17.326Z,20.10
2022-12-23T17:15:43.923Z,18.60
2022-12-23T17:18:15.556Z,20.10
2022-12-23T17:20:43.635Z,18.58
2022-12-23T17:23:25.650Z,17.23
2022-12-23T17:25:52.255Z,18.85
2022-12-23T17:28:19.479Z,17.00
2022-12-23T17:30:45.915Z,16.77
2022-12-23T17:33:18.259Z,17.27
2022-12-23T17:35:44.815Z,16.95
2022-12-23T17:38:16.001Z,15.48
2022-12-23T17:40:45.258Z,16.92
2022-12-23T17:43:14.236Z,16.55
2022-12-23T17:45:41.108Z,18.27
2022-12-23T17:48:16.311Z,18.95
2022-12-23T17:50:47.137Z,20.30
2022-12-23T17:53:18.008Z,18.40
2022-12-23T17:55:44.738Z,21.33
2022-12-23T17:58:11.635Z,18.17
2022-12-23T18:00:38.377Z,17.67
2022-12-23T18:03:06.393Z,18.30
2022-12-23T18:05:34.914Z,21.05
2022-12-23T18:08:02.417Z,21.83
2022-12-23T18:10:39.054Z,20.25
2022-12-23T18:13:09.713Z,20.48
2022-12-23T18:15:39.774Z,21.85
2022-12-23T18:18:33.271Z,14.73
2022-12-23T18:21:08.347Z,19.10
2022-12-23T18:23:37.073Z,21.20
2022-12-23T18:26:04.072Z,21.33
2022-12-23T18:28:30.495Z,23.15
2022-12-23T18:30:57.694Z,23.77
2022-12-23T18:33:28.470Z,23.42
2022-12-23T18:35:54.906Z,24.52
2022-12-23T18:38:21.332Z,21.67
2022-12-23T18:40:49.663Z,23.90
2022-12-23T18:43:21.568Z,22.27
2022-12-23T18:45:52.862Z,22.17
2022-12-23T18:48:19.842Z,23.13
2022-12-23T18:50:46.702Z,27.70
2022-12-23T18:53:23.790Z,33.90
2022-12-23T18:55:51.646Z,26.90
2022-12-23T18:58:18.573Z,25.88
2022-12-23T19:00:45.928Z,22.02
2022-12-23T19:03:21.786Z,21.15
2022-12-23T19:05:49.360Z,20.15
2022-12-23T19:08:21.876Z,23.38
2022-12-23T19:10:52.290Z,23.45
2022-12-23T19:13:21.844Z,22.95
2022-12-23T19:15:51.197Z,20.48
2022-12-23T19:18:21.030Z,21.80
2022-12-23T19:20:49.059Z,20.90
2022-12-23T19:23:16.287Z,20.90
2022-12-23T19:25:52.584Z,18.17
2022-12-23T19:28:22.025Z,18.75
2022-12-23T19:30:48.897Z,20.75
2022-12-23T19:33:18.502Z,19.20
2022-12-23T19:35:45.018Z,18.38
2022-12-23T19:38:12.191Z,19.05
2022-12-23T19:40:38.825Z,21.02
2022-12-23T19:43:05.243Z,23.95
2022-12-23T19:45:31.809Z,21.13
2022-12-23T19:47:58.204Z,23.30
2022-12-23T19:50:26.319Z,22.17
2022-12-23T19:52:52.750Z,22.73
2022-12-23T19:55:19.147Z,22.73
2022-12-23T19:57:45.533Z,23.48
2022-12-23T20:00:12.606Z,23.88
2022-12-23T20:02:39.286Z,23.13
2022-12-23T20:05:05.917Z,23.52
2022-12-23T20:07:32.359Z,24.70
2022-12-23T20:09:58.766Z,25.05
2022-12-23T20:12:27.950Z,23.55
2022-12-23T20:14:54.416Z,25.95
2022-12-23T20:17:20.846Z,26.45
2022-12-23T20:19:47.279Z,25.90
2022-12-23T20:22:13.725Z,26.98
2022-12-23T20:24:40.126Z,28.63
2022-12-23T20:27:11.336Z,26.13
2022-12-23T20:29:38.437Z,27.77
2022-12-23T20:32:05.056Z,26.85
2022-12-23T20:34:36.690Z,29.38
2022-12-23T20:37:06.196Z,29.08
2022-12-23T20:39:32.632Z,28.20
2022-12-23T20:41:59.014Z,28.70
2022-12-23T20:44:35.121Z,27.95
2022-12-23T20:47:03.342Z,28.25
2022-12-23T20:49:29.823Z,28.77
2022-12-23T20:51:56.245Z,26.92
2022-12-23T20:54:27.938Z,25.95
2022-12-23T20:56:58.531Z,27.35
2022-12-23T20:59:24.987Z,27.95
2022-12-23T21:01:52.027Z,26.33
2022-12-23T21:04:18.774Z,25.70
2022-12-23T21:06:45.234Z,26.70
2022-12-23T21:09:13.617Z,27.90
2022-12-23T21:11:43.170Z,27.98
2022-12-23T21:14:10.661Z,27.33
2022-12-23T21:16:38.264Z,25.05
2022-12-23T21:19:06.827Z,26.00
2022-12-23T21:21:34.005Z,28.20
2022-12-23T21:24:04.627Z,27.27
2022-12-23T21:28:59.908Z,28.83
2022-12-23T21:31:27.842Z,28.00
2022-12-23T21:33:54.856Z,30.33
2022-12-23T21:36:23.751Z,29.88
2022-12-23T21:38:50.787Z,30.88
2022-12-23T21:41:22.839Z,30.20
2022-12-23T21:43:50.013Z,32.63
2022-12-23T21:46:21.015Z,33.72
2022-12-23T21:51:16.893Z,33.75
2022-12-23T21:53:45.221Z,36.45
2022-12-23T21:56:14.058Z,37.60
2022-12-23T21:58:41.004Z,36.85
2022-12-23T22:01:13.033Z,38.17
2022-12-23T22:03:42.897Z,38.10
2022-12-23T22:06:12.417Z,36.55
2022-12-23T22:08:39.527Z,37.75
2022-12-23T22:11:08.339Z,39.38
2022-12-23T22:13:35.145Z,38.17
2022-12-23T22:16:01.571Z,36.72
2022-12-23T22:18:30.857Z,38.00
2022-12-23T22:20:57.268Z,39.90
2022-12-23T22:23:26.619Z,37.60
2022-12-23T22:25:56.352Z,36.45
2022-12-23T22:28:25.817Z,36.80
2022-12-23T22:30:52.296Z,36.30
2022-12-23T22:33:18.766Z,31.83
2022-12-23T22:35:55.240Z,33.05
2022-12-23T22:38:21.656Z,33.05
2022-12-23T22:40:49.437Z,32.38
2022-12-23T22:43:15.955Z,32.58
2022-12-23T22:45:42.481Z,30.23
2022-12-23T22:48:09.312Z,29.90
2022-12-23T22:50:36.425Z,29.65
2022-12-23T22:53:02.860Z,28.17
2022-12-23T22:55:29.255Z,28.30
2022-12-23T22:57:55.709Z,27.63
2022-12-23T23:00:22.181Z,26.15
2022-12-23T23:02:48.586Z,25.48
2022-12-23T23:05:15.030Z,26.40
2022-12-23T23:07:41.446Z,24.33
2022-12-23T23:10:08.594Z,23.83
2022-12-23T23:12:35.022Z,23.48
2022-12-23T23:15:01.459Z,21.90
2022-12-23T23:17:28.829Z,24.20
2022-12-23T23:19:55.473Z,23.17
2022-12-23T23:22:23.228Z,23.58
2022-12-23T23:24:49.737Z,24.80
2022-12-23T23:27:16.131Z,24.40
2022-12-23T23:29:42.954Z,21.35
2022-12-23T23:32:09.891Z,22.13
2022-12-23T23:34:36.985Z,20.50
2022-12-23T23:37:03.930Z,19.92
2022-12-23T23:39:30.335Z,20.20
2022-12-23T23:41:56.716Z,19.15
2022-12-23T23:44:23.109Z,18.45
2022-12-23T23:46:49.503Z,18.35
2022-12-23T23:49:15.899Z,16.70
2022-12-23T23:51:42.352Z,16.67
2022-12-23T23:54:08.912Z,16.33
2022-12-23T23:56:38.809Z,18.10
2022-12-23T23:59:05.927Z,16.60
